Time,TemperatureF,DewpointF,PressureIn,WindDirection,WindDirectionDegrees,WindSpeedMPH,WindSpeedGustMPH,Humidity,HourlyPrecipIn,Conditions,Clouds,dailyrainin,SoftwareType,DateUTC
2013-05-20 00:11:00,67.1,66.5,29.98,West,270,0.0,-999.0,98,-99.99,,,0.00,Acu-Link.com,2013-05-20 04:11:00,
2013-05-20 00:26:00,67.1,66.5,29.98,ESE,112,1.7,-999.0,98,-99.99,,,0.00,Acu-Link.com,2013-05-20 04:26:00,
2013-05-20 00:41:00,67.3,66.7,29.97,WNW,292,1.1,-999.0,98,-99.99,,,0.00,Acu-Link.com,2013-05-20 04:41:00,
2013-05-20 00:56:00,67.5,66.9,29.97,ESE,112,0.0,-999.0,98,-99.99,,,0.01,Acu-Link.com,2013-05-20 04:56:00,
2013-05-20 01:12:00,67.5,66.9,29.97,ESE,112,0.0,-999.0,98,-99.99,,,0.01,Acu-Link.com,2013-05-20 05:12:00,
2013-05-20 01:27:00,67.5,66.9,29.96,ESE,112,0.0,-999.0,98,-99.99,,,0.01,Acu-Link.com,2013-05-20 05:27:00,
2013-05-20 01:42:00,67.6,67.0,29.96,West,270,0.0,-999.0,98,-99.99,,,0.01,Acu-Link.com,2013-05-20 05:42:00,
2013-05-20 01:58:00,67.6,67.0,29.96,ESE,112,0.0,-999.0,98,-99.99,,,0.01,Acu-Link.com,2013-05-20 05:58:00,
2013-05-20 02:13:00,67.8,67.2,29.96,West,270,0.0,-999.0,98,-99.99,,,0.01,Acu-Link.com,2013-05-20 06:13:00,
2013-05-20 02:28:00,67.8,67.2,29.95,ESE,112,0.0,-999.0,98,-99.99,,,0.01,Acu-Link.com,2013-05-20 06:28:00,
2013-05-20 02:43:00,67.8,67.2,29.95,West,270,0.0,-999.0,98,-99.99,,,0.01,Acu-Link.com,2013-05-20 06:43:00,
2013-05-20 02:59:00,67.6,67.0,29.95,West,270,0.0,-999.0,98,-99.99,,,0.01,Acu-Link.com,2013-05-20 06:59:00,
2013-05-20 03:14:00,67.6,67.0,29.95,WNW,292,0.0,-999.0,98,-99.99,,,0.01,Acu-Link.com,2013-05-20 07:14:00,
2013-05-20 03:29:00,67.6,67.0,29.95,West,270,0.0,-999.0,98,-99.99,,,0.01,Acu-Link.com,2013-05-20 07:29:00,
2013-05-20 03:45:00,67.6,67.0,29.95,WSW,247,0.0,-999.0,98,-99.99,,,0.01,Acu-Link.com,2013-05-20 07:45:00,
2013-05-20 04:00:00,67.6,67.0,29.95,ESE,112,0.0,-999.0,98,-99.99,,,0.05,Acu-Link.com,2013-05-20 08:00:00,
2013-05-20 04:15:00,67.6,67.0,29.95,ESE,112,2.2,-999.0,98,-99.99,,,0.27,Acu-Link.com,2013-05-20 08:15:00,
2013-05-20 04:30:00,67.6,67.0,29.94,ESE,112,0.0,-999.0,98,-99.99,,,0.36,Acu-Link.com,2013-05-20 08:30:00,
2013-05-20 04:46:00,67.5,66.9,29.94,West,270,0.0,-999.0,98,-99.99,,,0.53,Acu-Link.com,2013-05-20 08:46:00,
2013-05-20 05:01:00,67.6,66.7,29.95,West,270,0.0,-999.0,97,-99.99,,,0.53,Acu-Link.com,2013-05-20 09:01:00,
2013-05-20 05:16:00,67.6,65.2,29.95,West,270,1.7,-999.0,92,-99.99,,,0.60,Acu-Link.com,2013-05-20 09:16:00,
2013-05-20 05:31:00,67.6,59.4,29.95,East,90,0.0,-999.0,75,-99.99,,,0.65,Acu-Link.com,2013-05-20 09:31:00,
2013-05-20 05:46:00,67.8,40.6,29.96,West,270,0.0,-999.0,37,-99.99,,,0.65,Acu-Link.com,2013-05-20 09:46:00,
2013-05-20 06:01:00,67.8,-36.1,29.96,ESE,112,0.0,-999.0,1,-99.99,,,0.66,Acu-Link.com,2013-05-20 10:01:00,
2013-05-20 06:17:00,67.6,-36.3,29.96,West,270,1.1,-999.0,1,-99.99,,,0.66,Acu-Link.com,2013-05-20 10:17:00,
2013-05-20 06:32:00,67.6,-36.3,29.96,East,90,1.1,-999.0,1,-99.99,,,0.67,Acu-Link.com,2013-05-20 10:32:00,
2013-05-20 06:47:00,67.6,-36.3,29.97,ENE,67,0.0,-999.0,1,-99.99,,,0.71,Acu-Link.com,2013-05-20 10:47:00,
2013-05-20 07:03:00,67.6,-36.3,29.98,WNW,292,0.0,-999.0,1,-99.99,,,0.71,Acu-Link.com,2013-05-20 11:03:00,
2013-05-20 07:18:00,67.6,-36.3,29.98,WNW,292,0.0,-999.0,1,-99.99,,,0.72,Acu-Link.com,2013-05-20 11:18:00,
2013-05-20 07:33:00,67.6,-36.3,29.99,WNW,292,0.0,-999.0,1,-99.99,,,0.73,Acu-Link.com,2013-05-20 11:33:00,
2013-05-20 07:49:00,67.6,-36.3,29.98,West,270,0.0,-999.0,1,-99.99,,,0.74,Acu-Link.com,2013-05-20 11:49:00,
2013-05-20 08:04:00,68.0,-36.0,29.99,West,270,0.0,-999.0,1,-99.99,,,0.74,Acu-Link.com,2013-05-20 12:04:00,
2013-05-20 08:19:00,68.2,-35.9,29.98,NNW,337,0.0,-999.0,1,-99.99,,,0.74,Acu-Link.com,2013-05-20 12:19:00,
2013-05-20 08:34:00,68.5,-35.7,29.99,ENE,67,0.0,-999.0,1,-99.99,,,0.75,Acu-Link.com,2013-05-20 12:34:00,
2013-05-20 08:50:00,68.9,-35.5,29.99,ESE,112,1.1,-999.0,1,-99.99,,,0.75,Acu-Link.com,2013-05-20 12:50:00,
2013-05-20 09:05:00,69.1,-35.4,29.99,WNW,292,0.0,-999.0,1,-99.99,,,0.75,Acu-Link.com,2013-05-20 13:05:00,
2013-05-20 09:20:00,69.8,-34.9,29.99,WNW,292,1.1,-999.0,1,-99.99,,,0.75,Acu-Link.com,2013-05-20 13:20:00,
2013-05-20 09:36:00,69.8,-34.9,29.99,WNW,292,0.0,-999.0,1,-99.99,,,0.75,Acu-Link.com,2013-05-20 13:36:00,
2013-05-20 09:51:00,70.3,-34.6,29.99,West,270,0.0,-999.0,1,-99.99,,,0.75,Acu-Link.com,2013-05-20 13:51:00,
2013-05-20 10:06:00,70.7,-34.4,29.98,ESE,112,2.2,-999.0,1,-99.99,,,0.76,Acu-Link.com,2013-05-20 14:06:00,
2013-05-20 10:22:00,70.2,-34.7,29.98,NNW,337,0.0,-999.0,1,-99.99,,,0.76,Acu-Link.com,2013-05-20 14:22:00,
2013-05-20 10:37:00,70.0,-34.8,29.98,WNW,292,0.0,-999.0,1,-99.99,,,0.77,Acu-Link.com,2013-05-20 14:37:00,
2013-05-20 10:52:00,70.0,-34.8,29.98,NNW,337,0.0,-999.0,1,-99.99,,,0.78,Acu-Link.com,2013-05-20 14:52:00,
2013-05-20 11:07:00,70.0,-34.8,29.98,NNW,337,0.0,-999.0,1,-99.99,,,0.78,Acu-Link.com,2013-05-20 15:07:00,
2013-05-20 11:23:00,70.9,-34.3,29.99,East,90,0.0,-999.0,1,-99.99,,,0.78,Acu-Link.com,2013-05-20 15:23:00,
2013-05-20 11:38:00,71.1,-34.2,29.99,West,270,1.1,-999.0,1,-99.99,,,0.78,Acu-Link.com,2013-05-20 15:38:00,
2013-05-20 11:53:00,71.8,-33.7,29.98,NW,315,4.2,-999.0,1,-99.99,,,0.78,Acu-Link.com,2013-05-20 15:53:00,
2013-05-20 12:09:00,72.5,-33.3,29.97,East,90,0.0,-999.0,1,-99.99,,,0.78,Acu-Link.com,2013-05-20 16:09:00,
2013-05-20 12:24:00,73.8,-32.5,29.97,NW,315,1.7,-999.0,1,-99.99,,,0.78,Acu-Link.com,2013-05-20 16:24:00,
2013-05-20 12:39:00,75.0,-31.8,29.96,NW,315,0.0,-999.0,1,-99.99,,,0.78,Acu-Link.com,2013-05-20 16:39:00,
2013-05-20 12:55:00,75.2,-31.7,29.96,West,270,1.1,-999.0,1,-99.99,,,0.78,Acu-Link.com,2013-05-20 16:55:00,
2013-05-20 13:10:00,74.8,-31.9,29.95,WNW,292,0.0,-999.0,1,-99.99,,,0.78,Acu-Link.com,2013-05-20 17:10:00,
2013-05-20 13:25:00,75.0,-31.8,29.95,ESE,112,0.0,-999.0,1,-99.99,,,0.78,Acu-Link.com,2013-05-20 17:25:00,
2013-05-20 13:40:00,73.6,-32.7,29.95,ESE,112,0.0,-999.0,1,-99.99,,,0.84,Acu-Link.com,2013-05-20 17:40:00,
2013-05-20 13:55:00,73.4,-32.8,29.94,NNW,337,0.0,-999.0,1,-99.99,,,0.84,Acu-Link.com,2013-05-20 17:55:00,
2013-05-20 14:10:00,73.6,-32.7,29.94,West,270,2.2,-999.0,1,-99.99,,,0.84,Acu-Link.com,2013-05-20 18:10:00,
2013-05-20 14:26:00,73.8,-32.5,29.94,West,270,1.7,-999.0,1,-99.99,,,0.84,Acu-Link.com,2013-05-20 18:26:00,
2013-05-20 14:41:00,74.3,-32.2,29.95,NW,315,0.0,-999.0,1,-99.99,,,0.84,Acu-Link.com,2013-05-20 18:41:00,
2013-05-20 14:56:00,73.9,-32.5,29.95,NNW,337,0.0,-999.0,1,-99.99,,,0.85,Acu-Link.com,2013-05-20 18:56:00,
2013-05-20 15:12:00,72.9,-33.1,29.94,West,270,0.0,-999.0,1,-99.99,,,0.85,Acu-Link.com,2013-05-20 19:12:00,
2013-05-20 15:27:00,71.8,-33.7,29.93,ESE,112,2.2,-999.0,1,-99.99,,,0.86,Acu-Link.com,2013-05-20 19:27:00,
2013-05-20 15:42:00,70.7,-34.4,29.94,West,270,0.0,-999.0,1,-99.99,,,0.89,Acu-Link.com,2013-05-20 19:42:00,
2013-05-20 15:58:00,70.7,-34.4,29.94,WNW,292,1.1,-999.0,1,-99.99,,,0.91,Acu-Link.com,2013-05-20 19:58:00,
2013-05-20 16:13:00,70.7,-34.4,29.94,ESE,112,0.0,-999.0,1,-99.99,,,0.94,Acu-Link.com,2013-05-20 20:13:00,
2013-05-20 16:28:00,71.2,-34.1,29.93,NW,315,0.0,-999.0,1,-99.99,,,0.95,Acu-Link.com,2013-05-20 20:28:00,
2013-05-20 16:43:00,71.4,-34.0,29.92,West,270,0.0,-999.0,1,-99.99,,,0.95,Acu-Link.com,2013-05-20 20:43:00,
2013-05-20 16:58:00,71.4,-34.0,29.93,ESE,112,0.0,-999.0,1,-99.99,,,0.95,Acu-Link.com,2013-05-20 20:58:00,
2013-05-20 17:14:00,71.4,-34.0,29.92,East,90,0.0,-999.0,1,-99.99,,,0.95,Acu-Link.com,2013-05-20 21:14:00,
2013-05-20 17:29:00,72.0,-33.6,29.92,NNE,22,0.0,-999.0,1,-99.99,,,0.95,Acu-Link.com,2013-05-20 21:29:00,
2013-05-20 19:17:00,71.2,65.4,29.91,WNW,292,0.0,-999.0,82,-99.99,,,1.03,Acu-Link.com,2013-05-20 23:17:00,
2013-05-20 19:32:00,71.4,50.1,29.91,East,90,0.0,-999.0,47,-99.99,,,1.03,Acu-Link.com,2013-05-20 23:32:00,
2013-05-20 19:47:00,71.4,31.7,29.92,NNW,337,0.0,-999.0,23,-99.99,,,1.03,Acu-Link.com,2013-05-20 23:47:00,
2013-05-20 20:03:00,71.1,-34.2,29.92,ESE,112,0.0,-999.0,1,-99.99,,,1.03,Acu-Link.com,2013-05-21 00:03:00,
2013-05-20 20:18:00,70.7,-34.4,29.93,ESE,112,0.0,-999.0,1,-99.99,,,1.03,Acu-Link.com,2013-05-21 00:18:00,
2013-05-20 20:34:00,70.2,-34.7,29.93,East,90,0.0,-999.0,1,-99.99,,,1.03,Acu-Link.com,2013-05-21 00:34:00,
2013-05-20 20:50:00,69.8,-34.9,29.93,East,90,0.0,-999.0,1,-99.99,,,1.03,Acu-Link.com,2013-05-21 00:50:00,
2013-05-20 21:05:00,69.4,-35.2,29.93,ESE,112,0.0,-999.0,1,-99.99,,,1.03,Acu-Link.com,2013-05-21 01:05:00,
2013-05-20 21:21:00,69.4,-35.2,29.93,ESE,112,0.0,-999.0,1,-99.99,,,1.03,Acu-Link.com,2013-05-21 01:21:00,
2013-05-20 21:36:00,69.4,-35.2,29.93,WNW,292,0.0,-999.0,1,-99.99,,,1.03,Acu-Link.com,2013-05-21 01:36:00,
2013-05-20 21:52:00,69.6,-35.1,29.93,WNW,292,0.0,-999.0,1,-99.99,,,1.03,Acu-Link.com,2013-05-21 01:52:00,
2013-05-20 22:07:00,69.8,-34.9,29.94,WNW,292,0.0,-999.0,1,-99.99,,,1.03,Acu-Link.com,2013-05-21 02:07:00,
2013-05-20 22:22:00,69.4,-35.2,29.93,NW,315,0.0,-999.0,1,-99.99,,,1.03,Acu-Link.com,2013-05-21 02:22:00,
2013-05-20 22:37:00,69.3,-35.2,29.92,NNW,337,0.0,-999.0,1,-99.99,,,1.03,Acu-Link.com,2013-05-21 02:37:00,
2013-05-20 22:52:00,69.1,-35.4,29.93,West,270,0.0,-999.0,1,-99.99,,,1.03,Acu-Link.com,2013-05-21 02:52:00,
2013-05-20 23:08:00,69.1,-35.4,29.92,WNW,292,0.0,-999.0,1,-99.99,,,1.03,Acu-Link.com,2013-05-21 03:08:00,
2013-05-20 23:23:00,69.1,-35.4,29.91,West,270,0.0,-999.0,1,-99.99,,,1.03,Acu-Link.com,2013-05-21 03:23:00,
2013-05-20 23:38:00,69.1,-35.4,29.91,West,270,0.0,-999.0,1,-99.99,,,1.03,Acu-Link.com,2013-05-21 03:38:00,
2013-05-20 23:54:00,69.1,-35.4,29.91,NW,315,0.0,-999.0,1,-99.99,,,1.03,Acu-Link.com,2013-05-21 03:54:00,